Time;durP1;ratioP1;P1;durP2;ratioP2;P2;SDS_P1;SDS_P2;PMS_P1;PMS_P2;Temp;Humidity;BMP_temperature;BMP_pressure;BME280_temperature;BME280_humidity;BME280_pressure;Samples;Min_cycle;Max_cycle;Signal;HPM_P1;HPM_P2
2022/10/07 00:01:25;;;;;;;8.80;2.53;;;12.40;99.90;;;;;;5113081;28;20518;-66
2022/10/07 00:03:50;;;;;;;11.67;3.33;;;12.40;99.90;;;;;;5112827;28;20187;-66
2022/10/07 00:06:19;;;;;;;9.57;2.20;;;12.40;99.90;;;;;;5113070;28;20180;-65
2022/10/07 00:08:46;;;;;;;10.27;3.37;;;12.30;99.90;;;;;;5113006;28;20222;-66
2022/10/07 00:11:20;;;;;;;4.50;2.37;;;12.40;99.90;;;;;;5112936;28;20441;-65
2022/10/07 00:13:47;;;;;;;5.40;2.33;;;12.40;99.90;;;;;;5095337;28;20409;-66
2022/10/07 00:16:18;;;;;;;7.83;1.77;;;12.30;99.90;;;;;;5113154;28;20490;-65
2022/10/07 00:18:44;;;;;;;6.00;2.10;;;12.30;99.90;;;;;;5112553;28;20414;-65
2022/10/07 00:21:14;;;;;;;9.10;1.80;;;12.30;99.90;;;;;;5105788;28;20433;-65
2022/10/07 00:23:41;;;;;;;9.03;3.20;;;12.30;99.90;;;;;;5082929;28;20650;-66
2022/10/07 00:26:08;;;;;;;5.77;2.80;;;12.40;99.90;;;;;;5105365;28;20421;-66
2022/10/07 00:28:35;;;;;;;3.23;1.70;;;12.40;99.90;;;;;;5112096;28;20421;-66
2022/10/07 00:31:06;;;;;;;9.60;2.33;;;12.40;99.90;;;;;;5112760;28;20425;-66
2022/10/07 00:33:35;;;;;;;4.17;1.90;;;12.40;99.90;;;;;;5112305;28;20421;-66
2022/10/07 00:39:23;;;;;;;3.60;1.40;;;12.30;99.90;;;;;;5094318;28;20488;-65
2022/10/07 00:41:51;;;;;;;5.53;2.00;;;12.30;99.90;;;;;;5111963;28;21203;-65
2022/10/07 00:44:32;;;;;;;3.40;1.67;;;12.30;99.90;;;;;;5110615;28;20176;-65
2022/10/07 00:47:03;;;;;;;5.03;1.47;;;12.30;99.90;;;;;;5112847;28;20505;-65
2022/10/07 00:49:39;;;;;;;2.73;1.47;;;12.30;99.90;;;;;;5112111;28;20425;-65
2022/10/07 00:52:05;;;;;;;2.80;1.67;;;12.30;99.90;;;;;;5112080;28;20409;-65
2022/10/07 00:54:30;;;;;;;4.17;2.27;;;12.30;99.90;;;;;;5111501;28;20428;-65
2022/10/07 00:56:58;;;;;;;3.07;1.70;;;12.20;99.90;;;;;;5112473;28;20179;-65
2022/10/07 00:59:24;;;;;;;7.23;2.20;;;12.30;99.90;;;;;;5103423;28;20292;-65
2022/10/07 01:01:50;;;;;;;5.47;2.17;;;12.30;99.90;;;;;;5111394;28;20476;-65
2022/10/07 01:04:16;;;;;;;2.87;2.07;;;12.30;99.90;;;;;;5112050;28;20834;-65
2022/10/07 01:06:44;;;;;;;2.93;1.67;;;12.30;99.90;;;;;;5112592;28;20176;-65
2022/10/07 01:09:11;;;;;;;6.33;2.00;;;12.30;99.90;;;;;;5085203;28;20534;-65
2022/10/07 01:11:48;;;;;;;6.90;2.67;;;12.30;99.90;;;;;;5110585;28;20417;-65
2022/10/07 01:14:17;;;;;;;4.40;1.97;;;12.20;99.90;;;;;;5095717;28;20925;-65
2022/10/07 01:16:43;;;;;;;3.27;1.70;;;12.20;99.90;;;;;;5111772;28;20420;-65
2022/10/07 01:19:27;;;;;;;4.60;2.10;;;12.20;99.90;;;;;;5110265;28;20890;-65
2022/10/07 01:22:04;;;;;;;3.60;1.77;;;12.20;99.90;;;;;;5109969;28;20267;-65
2022/10/07 01:24:41;;;;;;;2.63;1.53;;;12.20;99.90;;;;;;5112418;28;20405;-65
2022/10/07 01:27:19;;;;;;;3.40;1.97;;;12.20;99.90;;;;;;5090656;28;20454;-65
2022/10/07 01:29:54;;;;;;;11.80;2.50;;;12.20;99.90;;;;;;5097079;28;20421;-65
2022/10/07 01:32:31;;;;;;;12.70;1.83;;;12.20;99.90;;;;;;5115794;28;20465;-65
2022/10/07 01:34:58;;;;;;;6.57;2.30;;;12.20;99.90;;;;;;5116269;28;20847;-65
2022/10/07 01:37:28;;;;;;;11.20;2.43;;;12.20;99.90;;;;;;5116066;28;20406;-65
2022/10/07 01:39:57;;;;;;;4.73;1.20;;;12.20;99.90;;;;;;5088981;28;20468;-65
2022/10/07 01:42:25;;;;;;;7.20;2.73;;;12.20;99.90;;;;;;5113563;28;20417;-65
2022/10/07 01:44:55;;;;;;;10.37;2.93;;;12.20;99.90;;;;;;5115341;28;20902;-65
2022/10/07 01:47:21;;;;;;;6.50;1.97;;;12.20;99.90;;;;;;5115798;28;20413;-65
2022/10/07 01:49:47;;;;;;;3.70;1.47;;;12.20;99.90;;;;;;5115895;28;20454;-65
2022/10/07 01:52:42;;;;;;;6.50;2.30;;;12.20;99.90;;;;;;5115015;28;20694;-65
2022/10/07 01:55:28;;;;;;;6.17;2.70;;;12.20;99.90;;;;;;5115077;28;20236;-65
2022/10/07 01:58:14;;;;;;;7.40;2.60;;;12.20;99.90;;;;;;5088770;28;20456;-65
2022/10/07 02:00:51;;;;;;;10.77;2.93;;;12.20;99.90;;;;;;5111284;28;20479;-65
2022/10/07 02:03:22;;;;;;;3.97;1.60;;;12.20;99.90;;;;;;5098639;28;20900;-65
2022/10/07 02:06:24;;;;;;;3.37;1.70;;;12.20;99.90;;;;;;5114681;28;20421;-65
2022/10/07 02:08:53;;;;;;;4.03;2.10;;;12.20;99.90;;;;;;5115469;28;20409;-65
2022/10/07 02:11:26;;;;;;;3.60;1.70;;;12.20;99.90;;;;;;5115472;28;20414;-66
2022/10/07 02:14:01;;;;;;;7.73;2.33;;;12.20;99.90;;;;;;5097739;28;20414;-65
2022/10/07 02:16:58;;;;;;;16.93;2.30;;;12.10;99.90;;;;;;5115305;28;20481;-65
2022/10/07 02:19:30;;;;;;;20.77;2.57;;;12.10;99.90;;;;;;5091742;28;20461;-66
2022/10/07 02:21:57;;;;;;;6.97;1.93;;;12.10;99.90;;;;;;5112674;28;20877;-65
2022/10/07 02:24:26;;;;;;;3.10;1.60;;;12.10;99.90;;;;;;5115207;28;20483;-66
2022/10/07 02:26:54;;;;;;;4.70;1.83;;;12.00;99.90;;;;;;5115136;28;20442;-65
2022/10/07 02:29:22;;;;;;;3.43;1.90;;;12.00;99.90;;;;;;5114053;28;20510;-65
2022/10/07 02:31:49;;;;;;;3.50;1.40;;;12.00;99.90;;;;;;5114746;28;20535;-66
2022/10/07 02:34:18;;;;;;;6.30;1.67;;;12.00;99.90;;;;;;5114704;28;20426;-66
2022/10/07 02:37:04;;;;;;;3.03;1.60;;;12.00;99.90;;;;;;5114594;28;20410;-66
2022/10/07 02:39:30;;;;;;;2.70;1.60;;;12.00;99.90;;;;;;5087024;28;20492;-65
2022/10/07 02:42:24;;;;;;;4.03;1.57;;;11.90;99.90;;;;;;5114245;28;20916;-65
2022/10/07 02:44:55;;;;;;;3.07;1.57;;;11.90;99.90;;;;;;5087260;28;20263;-65
2022/10/07 02:47:24;;;;;;;3.40;1.80;;;11.90;99.90;;;;;;5114845;28;20500;-65
2022/10/07 02:49:53;;;;;;;4.50;2.10;;;11.90;99.90;;;;;;5114655;28;20461;-65
2022/10/07 02:52:21;;;;;;;4.03;1.90;;;11.90;99.90;;;;;;5103599;28;20415;-65
2022/10/07 02:54:50;;;;;;;3.77;1.30;;;12.00;99.90;;;;;;5102419;28;20953;-65
2022/10/07 02:57:18;;;;;;;3.27;1.90;;;12.00;99.90;;;;;;5114495;28;20414;-65
2022/10/07 02:59:46;;;;;;;5.80;2.47;;;11.90;99.90;;;;;;5087628;28;20457;-65
2022/10/07 03:02:19;;;;;;;5.80;2.17;;;11.90;99.90;;;;;;5113719;28;20430;-65
2022/10/07 03:04:44;;;;;;;4.63;2.30;;;11.90;99.90;;;;;;5114305;28;20405;-65
2022/10/07 03:07:12;;;;;;;6.37;2.43;;;11.90;99.90;;;;;;5114293;28;20955;-65
2022/10/07 03:09:38;;;;;;;5.73;1.93;;;11.90;99.90;;;;;;5114310;28;20171;-65
2022/10/07 03:12:04;;;;;;;7.80;2.30;;;11.90;99.90;;;;;;5113634;28;20460;-65
2022/10/07 03:14:30;;;;;;;3.77;1.80;;;11.90;99.90;;;;;;5097673;28;20490;-65
2022/10/07 03:16:55;;;;;;;2.73;1.43;;;11.90;99.90;;;;;;5114050;28;20202;-65
2022/10/07 03:19:21;;;;;;;6.47;2.00;;;11.90;99.90;;;;;;5110248;28;20200;-65
2022/10/07 03:21:47;;;;;;;3.60;1.60;;;11.90;99.90;;;;;;5110954;28;20194;-65
2022/10/07 03:24:13;;;;;;;5.50;2.20;;;11.90;99.90;;;;;;5113757;28;20175;-65
2022/10/07 03:26:38;;;;;;;3.20;1.67;;;11.90;99.90;;;;;;5113997;28;20417;-65
2022/10/07 03:29:04;;;;;;;3.57;1.77;;;11.90;99.90;;;;;;5112958;28;20175;-65
2022/10/07 03:31:30;;;;;;;4.77;2.43;;;11.90;99.90;;;;;;5113365;28;20176;-65
2022/10/07 03:33:56;;;;;;;8.03;2.40;;;11.90;99.90;;;;;;5099906;28;20175;-65
2022/10/07 03:36:23;;;;;;;5.10;1.70;;;11.80;99.90;;;;;;5110786;28;20179;-65
2022/10/07 03:38:50;;;;;;;12.50;2.10;;;11.90;99.90;;;;;;5091154;28;20502;-65
2022/10/07 03:41:17;;;;;;;2.30;1.43;;;11.90;99.90;;;;;;5109249;28;20460;-65
2022/10/07 03:43:43;;;;;;;5.10;1.97;;;11.90;99.90;;;;;;5086266;28;20501;-65
2022/10/07 03:46:09;;;;;;;4.87;1.53;;;11.80;99.90;;;;;;5111636;28;21033;-65
2022/10/07 03:48:34;;;;;;;4.67;2.27;;;11.90;99.90;;;;;;5112995;28;20698;-65
2022/10/07 03:51:00;;;;;;;6.20;2.20;;;11.90;99.90;;;;;;5113362;28;20258;-65
2022/10/07 03:53:28;;;;;;;6.93;3.03;;;11.90;99.90;;;;;;5113097;28;20268;-65
2022/10/07 03:55:54;;;;;;;11.53;2.60;;;11.90;99.90;;;;;;5112554;28;20179;-65
2022/10/07 03:58:20;;;;;;;8.73;2.13;;;11.90;99.90;;;;;;5107699;28;20889;-65
2022/10/07 04:00:46;;;;;;;3.40;1.70;;;11.90;99.90;;;;;;5110815;28;20518;-65
2022/10/07 04:03:13;;;;;;;8.27;2.63;;;11.90;99.90;;;;;;5112906;28;20652;-65
2022/10/07 04:05:39;;;;;;;3.70;1.70;;;11.90;99.90;;;;;;5112937;28;20405;-65
2022/10/07 04:08:05;;;;;;;2.90;1.50;;;11.90;99.90;;;;;;5112592;28;20440;-65
2022/10/07 04:10:31;;;;;;;6.20;2.27;;;11.90;99.90;;;;;;5111944;28;20179;-65
2022/10/07 04:12:56;;;;;;;4.63;2.07;;;11.90;99.90;;;;;;5100709;28;20184;-65
2022/10/07 04:15:22;;;;;;;4.00;2.53;;;11.90;99.90;;;;;;5109148;28;20413;-65
2022/10/07 04:17:48;;;;;;;5.70;1.90;;;11.90;99.90;;;;;;5112423;28;20653;-65
2022/10/07 04:20:15;;;;;;;6.40;1.40;;;11.90;99.90;;;;;;5106604;28;20199;-65
2022/10/07 04:22:41;;;;;;;10.37;1.60;;;11.90;99.90;;;;;;5112480;28;20179;-65
2022/10/07 04:27:56;;;;;;;2.10;1.20;;;11.90;99.90;;;;;;5113055;28;20186;-65
2022/10/07 04:30:23;;;;;;;5.53;2.17;;;11.80;99.90;;;;;;5112069;28;20915;-65
2022/10/07 04:32:49;;;;;;;3.23;1.90;;;11.80;99.90;;;;;;5094324;28;20423;-65
2022/10/07 04:35:16;;;;;;;6.80;1.63;;;11.80;99.90;;;;;;5101891;28;20806;-65
2022/10/07 04:37:42;;;;;;;3.10;1.60;;;11.70;99.90;;;;;;5108475;28;20907;-65
2022/10/07 04:40:08;;;;;;;1.70;0.97;;;11.70;99.90;;;;;;5089131;28;20464;-65
2022/10/07 04:45:19;;;;;;;3.33;1.53;;;11.60;99.90;;;;;;5112087;28;20447;-65
2022/10/07 04:47:45;;;;;;;2.80;1.63;;;11.60;99.90;;;;;;5112417;28;20417;-65
2022/10/07 04:50:11;;;;;;;4.67;2.07;;;11.50;99.90;;;;;;5112389;28;20426;-65
2022/10/07 04:52:43;;;;;;;4.60;2.57;;;11.50;99.90;;;;;;5112116;28;20423;-65
2022/10/07 04:55:11;;;;;;;2.93;1.53;;;11.50;99.90;;;;;;5111466;28;20418;-65
2022/10/07 04:57:37;;;;;;;5.57;1.73;;;11.50;99.90;;;;;;5112382;28;20441;-65
2022/10/07 05:00:04;;;;;;;3.03;1.90;;;11.50;99.90;;;;;;5104671;28;20479;-65
2022/10/07 05:02:30;;;;;;;5.73;2.60;;;11.50;99.90;;;;;;5098454;28;20426;-65
2022/10/07 05:04:55;;;;;;;7.00;2.27;;;11.50;99.90;;;;;;5085801;28;20774;-65
2022/10/07 05:07:21;;;;;;;6.27;2.57;;;11.50;99.90;;;;;;5087423;28;20257;-65
2022/10/07 05:09:47;;;;;;;7.13;2.00;;;11.40;99.90;;;;;;5088266;28;20264;-65
2022/10/07 05:12:12;;;;;;;3.27;1.70;;;11.50;99.90;;;;;;5093278;28;20504;-65
2022/10/07 05:14:41;;;;;;;3.23;1.50;;;11.50;99.90;;;;;;5088308;28;20188;-66
2022/10/07 05:17:07;;;;;;;4.70;1.97;;;11.50;99.90;;;;;;5089663;28;20184;-65
2022/10/07 05:19:33;;;;;;;5.90;2.03;;;11.50;99.90;;;;;;5089537;28;20458;-65
2022/10/07 05:21:59;;;;;;;5.33;2.20;;;11.60;99.90;;;;;;5086726;28;20173;-65
2022/10/07 05:24:25;;;;;;;4.30;1.53;;;11.60;99.90;;;;;;5084768;28;20457;-65
2022/10/07 05:26:51;;;;;;;5.53;2.30;;;11.50;99.90;;;;;;5114324;28;20580;-65
2022/10/07 05:29:16;;;;;;;8.70;2.17;;;11.70;99.90;;;;;;5115304;28;20187;-65
2022/10/07 05:31:42;;;;;;;6.87;1.77;;;11.50;99.90;;;;;;5093711;28;20226;-65
2022/10/07 05:34:07;;;;;;;2.50;1.47;;;11.50;99.90;;;;;;5089001;28;20653;-65
2022/10/07 05:36:33;;;;;;;2.70;1.57;;;11.50;99.90;;;;;;5086955;28;20184;-65
2022/10/07 05:38:59;;;;;;;4.40;2.07;;;11.40;99.90;;;;;;5086076;28;20185;-65
2022/10/07 05:41:28;;;;;;;3.43;1.90;;;11.40;99.90;;;;;;5093115;28;20413;-65
2022/10/07 05:43:54;;;;;;;3.17;1.50;;;11.50;99.90;;;;;;5104086;28;20637;-65
2022/10/07 05:46:20;;;;;;;2.50;1.63;;;11.50;99.90;;;;;;5115607;28;20473;-65
2022/10/07 05:48:47;;;;;;;7.13;1.63;;;11.50;99.90;;;;;;5115848;28;20657;-65
2022/10/07 05:51:13;;;;;;;10.80;2.07;;;11.50;99.90;;;;;;5115852;28;20425;-65
2022/10/07 05:53:40;;;;;;;3.73;1.93;;;11.50;99.90;;;;;;5115169;28;20413;-65
2022/10/07 05:56:07;;;;;;;8.40;1.83;;;11.50;99.90;;;;;;5098426;28;20421;-65
2022/10/07 05:58:34;;;;;;;3.77;1.87;;;11.50;99.90;;;;;;5108136;28;20536;-65
2022/10/07 06:01:01;;;;;;;3.70;1.83;;;11.60;99.90;;;;;;5088485;28;20473;-65
2022/10/07 06:03:27;;;;;;;3.03;1.57;;;11.60;99.90;;;;;;5114916;28;21196;-65
2022/10/07 06:05:54;;;;;;;3.80;1.80;;;11.70;99.90;;;;;;5115723;28;20494;-65
2022/10/07 06:08:21;;;;;;;3.93;1.60;;;11.70;99.90;;;;;;5115294;28;20194;-65
2022/10/07 06:13:32;;;;;;;7.70;2.07;;;11.70;99.90;;;;;;5087201;28;20917;-65
2022/10/07 06:16:05;;;;;;;4.60;2.07;;;11.80;99.90;;;;;;5115228;28;20413;-65
2022/10/07 06:18:32;;;;;;;7.73;1.40;;;11.80;99.90;;;;;;5115072;28;20190;-65
2022/10/07 06:20:59;;;;;;;4.53;1.73;;;11.90;99.90;;;;;;5108529;28;20446;-65
2022/10/07 06:23:26;;;;;;;5.77;2.00;;;11.90;99.90;;;;;;5114637;28;20510;-65
2022/10/07 06:26:04;;;;;;;4.10;1.53;;;12.00;99.90;;;;;;5094702;28;20414;-65
2022/10/07 06:28:32;;;;;;;5.67;2.03;;;12.10;99.90;;;;;;5107500;28;20416;-65
2022/10/07 06:31:01;;;;;;;2.20;1.60;;;12.10;99.90;;;;;;5114063;28;20418;-65
2022/10/07 06:33:27;;;;;;;5.97;2.10;;;12.10;99.90;;;;;;5094962;28;20433;-65
2022/10/07 06:35:55;;;;;;;4.60;1.80;;;12.10;99.90;;;;;;5114045;28;20413;-65
2022/10/07 06:38:21;;;;;;;6.83;1.90;;;12.20;99.90;;;;;;5098902;28;20272;-65
2022/10/07 06:40:57;;;;;;;3.80;1.70;;;12.20;99.90;;;;;;5100776;28;21053;-65
2022/10/07 06:43:27;;;;;;;4.37;1.83;;;12.30;99.90;;;;;;5093806;28;20177;-65
2022/10/07 06:45:57;;;;;;;3.30;1.63;;;12.40;99.90;;;;;;5087129;28;20469;-65
2022/10/07 06:48:23;;;;;;;7.13;1.97;;;12.50;99.90;;;;;;5083175;28;20484;-65
2022/10/07 06:50:53;;;;;;;7.03;1.67;;;12.50;99.90;;;;;;5082033;28;20428;-65
2022/10/07 06:53:20;;;;;;;7.03;1.50;;;12.60;99.90;;;;;;5080892;28;20956;-65
2022/10/07 06:55:46;;;;;;;7.20;2.23;;;12.60;99.90;;;;;;5082522;28;20538;-65
2022/10/07 06:58:11;;;;;;;5.57;1.80;;;12.70;99.90;;;;;;5084537;28;20963;-65
2022/10/07 07:00:38;;;;;;;11.43;1.70;;;12.80;99.90;;;;;;5087421;28;20661;-65
2022/10/07 07:03:03;;;;;;;10.57;3.10;;;12.80;99.90;;;;;;5080376;28;20280;-65
2022/10/07 07:05:37;;;;;;;5.80;2.83;;;12.90;99.90;;;;;;5081403;28;20888;-65
2022/10/07 07:08:03;;;;;;;4.53;2.00;;;13.00;99.90;;;;;;5083050;28;20263;-65
2022/10/07 07:10:29;;;;;;;6.80;1.87;;;13.10;99.90;;;;;;5083394;28;20513;-65
2022/10/07 07:12:56;;;;;;;3.73;1.83;;;13.10;99.90;;;;;;5080415;28;20283;-65
2022/10/07 07:15:21;;;;;;;6.80;2.53;;;13.30;99.90;;;;;;5080996;28;20177;-65
2022/10/07 07:17:47;;;;;;;4.03;2.17;;;13.40;99.90;;;;;;5083550;28;20423;-66
2022/10/07 07:20:13;;;;;;;5.30;2.60;;;13.40;99.90;;;;;;5088545;28;20879;-65
2022/10/07 07:22:40;;;;;;;8.30;3.10;;;13.60;99.90;;;;;;5084323;28;20184;-65
2022/10/07 07:25:08;;;;;;;7.47;3.17;;;13.80;99.90;;;;;;5084268;28;20814;-65
2022/10/07 07:27:35;;;;;;;4.10;2.10;;;13.90;99.90;;;;;;5084223;28;20753;-66
2022/10/07 07:30:01;;;;;;;11.33;3.47;;;14.10;99.90;;;;;;5085083;28;20446;-65
2022/10/07 07:32:28;;;;;;;7.20;3.03;;;14.20;99.90;;;;;;5084024;28;20438;-65
2022/10/07 07:34:55;;;;;;;11.17;3.23;;;14.50;99.90;;;;;;5080227;28;20422;-65
2022/10/07 07:37:22;;;;;;;5.90;2.40;;;14.70;99.90;;;;;;5104661;28;20496;-66
2022/10/07 07:39:47;;;;;;;7.47;3.27;;;14.90;99.90;;;;;;5084249;28;20468;-65
2022/10/07 07:42:13;;;;;;;7.07;3.73;;;15.30;99.90;;;;;;5086675;28;20415;-65
2022/10/07 07:44:39;;;;;;;11.50;4.27;;;15.50;99.90;;;;;;5085871;28;20697;-65
2022/10/07 07:47:06;;;;;;;5.73;2.53;;;15.90;99.90;;;;;;5080465;28;20263;-65
2022/10/07 07:49:32;;;;;;;26.43;3.90;;;16.30;99.90;;;;;;5086696;28;20180;-66
2022/10/07 07:51:59;;;;;;;8.00;3.07;;;16.90;99.90;;;;;;5083497;28;20415;-66
2022/10/07 07:54:26;;;;;;;6.37;2.73;;;17.40;99.90;;;;;;5080118;28;20427;-66
2022/10/07 07:56:55;;;;;;;7.87;3.43;;;17.60;99.90;;;;;;5084659;28;20502;-66
2022/10/07 07:59:22;;;;;;;6.00;2.77;;;18.20;99.90;;;;;;5084638;28;20427;-65
2022/10/07 08:01:48;;;;;;;7.43;2.87;;;18.60;99.90;;;;;;5082576;28;20476;-69
2022/10/07 08:04:14;;;;;;;11.43;3.63;;;18.60;99.90;;;;;;5082999;28;20415;-69
2022/10/07 08:06:41;;;;;;;5.30;3.37;;;18.50;99.90;;;;;;5089068;28;20953;-69
2022/10/07 08:09:06;;;;;;;5.50;2.40;;;18.60;99.90;;;;;;5085168;28;20432;-69
2022/10/07 08:11:33;;;;;;;4.90;2.80;;;18.80;99.90;;;;;;5098660;28;20896;-69
2022/10/07 08:13:59;;;;;;;6.17;3.33;;;18.80;99.90;;;;;;5090711;28;20180;-69
2022/10/07 08:16:27;;;;;;;6.57;3.40;;;18.80;99.90;;;;;;5105092;28;20428;-68
2022/10/07 08:18:54;;;;;;;4.63;2.80;;;19.00;99.90;;;;;;5106623;28;20410;-68
2022/10/07 08:21:24;;;;;;;9.10;3.60;;;19.10;99.90;;;;;;5098827;28;20457;-68
2022/10/07 08:23:57;;;;;;;8.13;3.23;;;18.90;99.90;;;;;;5112337;28;20459;-68
2022/10/07 08:26:23;;;;;;;9.60;4.13;;;18.80;99.90;;;;;;5111259;28;20435;-69
2022/10/07 08:28:49;;;;;;;10.63;4.40;;;18.90;99.90;;;;;;5081750;28;20479;-69
2022/10/07 08:31:16;;;;;;;10.60;4.10;;;18.90;99.90;;;;;;5083156;28;20439;-69
2022/10/07 08:33:43;;;;;;;7.60;3.10;;;19.10;99.90;;;;;;5082217;28;20574;-69
2022/10/07 08:36:15;;;;;;;15.00;4.20;;;19.10;99.90;;;;;;5082353;28;20439;-69
2022/10/07 08:38:41;;;;;;;10.60;4.03;;;19.00;99.90;;;;;;5079570;28;20419;-69
2022/10/07 08:41:27;;;;;;;10.83;3.73;;;18.70;99.90;;;;;;5088036;28;20453;-69
2022/10/07 08:43:53;;;;;;;6.30;3.50;;;18.90;99.90;;;;;;5079966;28;20414;-69
2022/10/07 08:46:24;;;;;;;8.10;3.83;;;18.90;99.90;;;;;;5091649;28;20462;-69
2022/10/07 08:49:02;;;;;;;7.83;3.17;;;18.70;99.90;;;;;;5086980;28;20181;-69
2022/10/07 08:51:47;;;;;;;9.50;4.87;;;18.70;99.90;;;;;;5082443;28;20502;-69
2022/10/07 08:54:15;;;;;;;7.50;3.43;;;18.40;99.90;;;;;;5081173;28;20465;-69
2022/10/07 08:56:42;;;;;;;11.83;3.87;;;18.40;99.90;;;;;;5082407;28;20415;-69
2022/10/07 08:59:32;;;;;;;6.70;2.97;;;18.20;99.90;;;;;;5072149;28;21048;-69
2022/10/07 09:02:01;;;;;;;7.77;3.70;;;18.00;99.90;;;;;;5082730;28;20439;-69
2022/10/07 09:04:30;;;;;;;15.60;4.57;;;18.10;99.90;;;;;;5079635;28;20879;-69
2022/10/07 09:07:07;;;;;;;9.27;4.27;;;18.00;99.90;;;;;;5107216;28;20505;-68
2022/10/07 09:09:52;;;;;;;4.97;3.30;;;17.80;99.90;;;;;;5111951;28;20907;-69
2022/10/07 09:12:32;;;;;;;8.23;4.47;;;17.90;99.90;;;;;;5110653;28;20425;-69
2022/10/07 09:14:59;;;;;;;14.60;4.27;;;17.80;99.90;;;;;;5099962;28;20424;-69
2022/10/07 09:17:53;;;;;;;5.83;3.63;;;17.80;99.90;;;;;;5112088;28;20430;-69
2022/10/07 09:20:22;;;;;;;14.83;3.63;;;17.90;99.90;;;;;;5104879;28;20461;-69
2022/10/07 09:22:52;;;;;;;9.13;4.40;;;17.70;99.90;;;;;;5111158;28;20410;-69
2022/10/07 09:25:18;;;;;;;10.93;3.93;;;17.60;99.90;;;;;;5111602;28;20414;-69
2022/10/07 09:27:43;;;;;;;6.53;3.30;;;17.30;99.90;;;;;;5111736;28;20454;-69
2022/10/07 09:30:12;;;;;;;7.60;3.50;;;17.30;99.90;;;;;;5110995;28;20259;-69
2022/10/07 09:32:41;;;;;;;8.40;4.00;;;17.20;99.90;;;;;;5082641;28;20197;-68
2022/10/07 09:35:20;;;;;;;11.13;3.97;;;17.30;99.90;;;;;;5079956;28;20453;-69
2022/10/07 09:38:08;;;;;;;7.43;3.77;;;17.40;99.90;;;;;;5085365;28;20418;-68
2022/10/07 09:40:34;;;;;;;8.00;4.07;;;17.20;99.90;;;;;;5103888;28;20475;-69
2022/10/07 09:43:01;;;;;;;7.47;4.10;;;17.10;99.90;;;;;;5109684;28;20771;-69
2022/10/07 09:45:31;;;;;;;19.23;5.07;;;17.20;99.90;;;;;;5111012;28;20180;-69
2022/10/07 09:48:06;;;;;;;9.07;4.00;;;17.30;99.90;;;;;;5106979;28;20444;-68
2022/10/07 09:50:42;;;;;;;13.90;4.63;;;17.40;99.90;;;;;;5108130;28;20737;-69
2022/10/07 09:53:22;;;;;;;6.50;3.63;;;17.50;99.90;;;;;;5114727;28;20512;-69
2022/10/07 09:55:49;;;;;;;8.90;4.30;;;17.50;99.90;;;;;;5114163;28;20765;-69
2022/10/07 09:58:16;;;;;;;16.30;4.33;;;17.60;99.90;;;;;;5110337;28;20531;-69
2022/10/07 10:00:47;;;;;;;7.70;3.93;;;17.60;99.90;;;;;;5093675;28;21011;-68
2022/10/07 10:03:13;;;;;;;7.00;2.93;;;17.80;99.90;;;;;;5086350;28;20448;-69
2022/10/07 10:05:56;;;;;;;6.37;3.33;;;17.90;99.90;;;;;;5109775;28;20428;-69
2022/10/07 10:08:33;;;;;;;5.80;3.30;;;18.00;99.90;;;;;;5114225;28;20413;-69
2022/10/07 10:11:04;;;;;;;6.07;3.13;;;18.30;99.90;;;;;;5082405;28;20441;-69
2022/10/07 10:13:31;;;;;;;6.70;3.20;;;18.40;99.90;;;;;;5090313;28;20807;-68
2022/10/07 10:15:57;;;;;;;6.77;3.27;;;18.10;99.90;;;;;;5087356;28;20478;-68
2022/10/07 10:18:33;;;;;;;11.77;4.50;;;18.10;99.90;;;;;;5086742;28;20415;-66
2022/10/07 10:21:18;;;;;;;10.07;3.47;;;18.20;99.90;;;;;;5097155;28;20206;-66
2022/10/07 10:23:46;;;;;;;7.10;4.17;;;18.30;99.90;;;;;;5081836;28;20497;-66
2022/10/07 10:26:24;;;;;;;7.77;3.17;;;18.10;99.90;;;;;;5094147;28;20480;-66
2022/10/07 10:28:54;;;;;;;5.23;2.70;;;18.20;99.90;;;;;;5081618;28;20426;-66
2022/10/07 10:31:34;;;;;;;6.50;3.30;;;18.10;99.90;;;;;;5109328;28;20426;-66
2022/10/07 10:34:29;;;;;;;6.30;3.27;;;18.10;99.90;;;;;;5114546;28;20405;-66
2022/10/07 10:37:36;;;;;;;11.17;3.67;;;18.20;99.90;;;;;;5089962;28;20434;-66
2022/10/07 10:40:02;;;;;;;18.43;3.97;;;18.30;99.90;;;;;;5084617;28;20446;-66
2022/10/07 10:43:05;;;;;;;6.60;2.80;;;18.30;99.90;;;;;;5086833;28;20456;-66
2022/10/07 10:45:40;;;;;;;5.03;2.47;;;18.20;99.90;;;;;;5057919;28;20188;-66
2022/10/07 10:48:10;;;;;;;6.37;3.07;;;18.50;99.90;;;;;;5092654;28;20408;-66
2022/10/07 10:50:54;;;;;;;7.40;3.27;;;18.50;99.90;;;;;;5113999;28;20413;-66
2022/10/07 10:53:39;;;;;;;6.47;2.90;;;18.50;99.90;;;;;;5113529;28;20417;-66
2022/10/07 10:56:38;;;;;;;10.57;4.20;;;18.60;99.90;;;;;;5112749;28;20416;-66
2022/10/07 10:59:28;;;;;;;10.00;3.30;;;18.60;99.90;;;;;;5104318;28;20508;-66
2022/10/07 11:02:18;;;;;;;7.37;3.10;;;18.80;99.90;;;;;;5113156;28;20428;-66
2022/10/07 11:05:01;;;;;;;7.93;3.13;;;18.80;99.90;;;;;;5102384;28;20416;-66
2022/10/07 11:07:34;;;;;;;8.80;4.30;;;18.50;99.90;;;;;;5112691;28;20769;-66
2022/10/07 11:10:16;;;;;;;9.37;3.77;;;18.40;99.90;;;;;;5113052;28;20409;-66
2022/10/07 11:12:47;;;;;;;16.33;3.67;;;18.40;99.90;;;;;;5099667;28;20967;-66
2022/10/07 11:15:30;;;;;;;4.93;2.87;;;18.60;99.90;;;;;;5092873;28;20765;-67
2022/10/07 11:18:01;;;;;;;14.80;3.40;;;18.50;99.90;;;;;;5105539;28;20448;-66
2022/10/07 11:20:32;;;;;;;5.47;3.00;;;18.80;99.90;;;;;;5105874;28;20460;-67
2022/10/07 11:23:21;;;;;;;7.60;3.83;;;19.20;99.90;;;;;;5090775;28;20418;-67
2022/10/07 11:25:56;;;;;;;7.83;4.33;;;19.10;99.90;;;;;;5082908;28;20540;-67
2022/10/07 11:28:31;;;;;;;5.07;3.10;;;18.80;99.90;;;;;;5112638;28;20799;-67
2022/10/07 11:31:23;;;;;;;5.70;3.37;;;18.80;99.90;;;;;;5112938;28;20767;-67
2022/10/07 11:34:11;;;;;;;4.40;2.90;;;18.70;99.90;;;;;;5096956;28;20473;-67
2022/10/07 11:36:55;;;;;;;6.27;3.73;;;18.70;99.90;;;;;;5112904;28;20993;-67
2022/10/07 11:39:22;;;;;;;6.10;3.10;;;18.40;99.90;;;;;;5084840;28;21005;-67
2022/10/07 11:41:51;;;;;;;8.97;3.50;;;18.30;99.90;;;;;;5111932;28;20773;-68
2022/10/07 11:44:23;;;;;;;7.73;3.50;;;18.50;99.90;;;;;;5110546;28;20423;-67
2022/10/07 11:46:50;;;;;;;8.17;2.93;;;18.30;99.90;;;;;;5112391;28;20427;-68
2022/10/07 11:49:38;;;;;;;5.17;3.13;;;18.80;99.90;;;;;;5112465;28;20770;-67
2022/10/07 11:52:27;;;;;;;4.27;2.87;;;19.00;99.90;;;;;;5111854;28;20428;-68
2022/10/07 11:55:04;;;;;;;7.90;3.20;;;19.00;99.90;;;;;;5111406;28;20425;-68
2022/10/07 11:57:34;;;;;;;6.70;2.97;;;19.00;99.90;;;;;;5112458;28;20420;-68
2022/10/07 12:00:22;;;;;;;7.60;3.83;;;19.00;99.90;;;;;;5104698;28;20449;-68
2022/10/07 12:02:48;;;;;;;7.47;2.87;;;19.00;99.90;;;;;;5092086;28;20430;-69
2022/10/07 12:05:32;;;;;;;7.47;3.17;;;18.90;99.90;;;;;;5100126;28;20418;-68
2022/10/07 12:08:01;;;;;;;5.37;2.80;;;18.60;99.90;;;;;;5097634;28;20268;-68
2022/10/07 12:10:33;;;;;;;6.83;3.50;;;18.60;99.90;;;;;;5082526;28;20423;-68
2022/10/07 12:13:21;;;;;;;10.97;3.57;;;18.60;99.90;;;;;;5082444;28;20419;-68
2022/10/07 12:15:48;;;;;;;7.90;3.43;;;18.80;99.90;;;;;;5068397;28;20461;-68
2022/10/07 12:18:16;;;;;;;19.10;3.00;;;18.80;99.90;;;;;;5084515;28;20896;-68
2022/10/07 12:20:51;;;;;;;7.53;3.33;;;19.00;99.90;;;;;;5083620;28;20459;-68
2022/10/07 12:23:28;;;;;;;6.60;3.70;;;18.70;99.90;;;;;;5085004;28;20428;-68
2022/10/07 12:25:59;;;;;;;8.47;3.27;;;18.60;99.90;;;;;;5083133;28;20455;-68
2022/10/07 12:28:40;;;;;;;10.03;3.83;;;19.00;99.90;;;;;;5093633;28;20429;-68
2022/10/07 12:31:15;;;;;;;5.30;3.17;;;19.40;99.90;;;;;;5082148;28;20423;-68
2022/10/07 12:33:46;;;;;;;8.30;3.50;;;19.30;99.90;;;;;;5082556;28;20426;-68
2022/10/07 12:36:17;;;;;;;8.83;3.57;;;18.80;99.90;;;;;;5085336;28;20433;-68
2022/10/07 12:39:06;;;;;;;5.27;3.20;;;18.50;99.90;;;;;;5076700;28;20428;-68
2022/10/07 12:41:35;;;;;;;5.30;3.17;;;18.40;99.90;;;;;;5079416;28;20475;-68
2022/10/07 12:44:06;;;;;;;7.90;4.30;;;18.50;99.90;;;;;;5082352;28;20648;-68
2022/10/07 12:46:49;;;;;;;4.60;2.57;;;18.60;99.90;;;;;;5082229;28;20451;-68
2022/10/07 12:49:47;;;;;;;5.90;2.60;;;19.00;99.90;;;;;;5084569;28;20426;-68
2022/10/07 12:52:15;;;;;;;6.17;3.37;;;19.40;99.90;;;;;;5081643;28;20434;-68
2022/10/07 12:54:54;;;;;;;6.70;3.43;;;19.30;99.90;;;;;;5098812;28;20429;-68
2022/10/07 12:57:22;;;;;;;7.20;2.83;;;19.00;99.90;;;;;;5110166;28;20413;-68
2022/10/07 13:00:04;;;;;;;9.97;3.53;;;19.00;99.90;;;;;;5081150;28;20796;-67
2022/10/07 13:02:49;;;;;;;9.17;3.37;;;18.80;99.90;;;;;;5080859;28;20426;-67
2022/10/07 13:05:26;;;;;;;6.00;3.80;;;18.90;99.90;;;;;;5077994;28;20909;-67
2022/10/07 13:08:10;;;;;;;14.27;3.30;;;18.90;99.90;;;;;;5079619;28;20419;-67
2022/10/07 13:10:38;;;;;;;5.43;3.30;;;19.00;99.90;;;;;;5070573;28;20465;-67
2022/10/07 13:13:06;;;;;;;5.53;3.50;;;19.10;99.90;;;;;;5072542;28;20767;-67
2022/10/07 13:15:44;;;;;;;7.43;3.00;;;19.00;99.90;;;;;;5078273;28;20464;-67
2022/10/07 13:18:36;;;;;;;5.57;3.10;;;19.00;99.90;;;;;;5073741;28;20411;-67